Pecan Grove, Mississippi
Current Conditions -  °F | °C
As of 8:35 PM on Sunday 21 Dec 2014 (Local Time) from KPIB Reporting Station
Overcast Overcast  
Wind Chill: 52°   Ceiling: 600
Heat Index: 52°   Visibility: 5mi
Dew Point: 46°   Wind: 5mph
Humidity: 82%   Direction: 70°ENE
Pressure: 30.01"   Gusts: NA
Location:  31.5533°N, 89.2322°W
Report Text: KPIB 220235Z AUTO 07004KT 5SM OVC006 11/08 A3001 RMK AO1
Loading
Personal Weather Stations






























Interactive Weather Map New forecast layout! Learn more

10-Day Weather Forecast

Advertisements
Track Severe Weather on mobile